Time;durP1;ratioP1;P1;durP2;ratioP2;P2;SDS_P1;SDS_P2;PMS_P1;PMS_P2;Temp;Humidity;BMP_temperature;BMP_pressure;BME280_temperature;BME280_humidity;BME280_pressure;Samples;Min_cycle;Max_cycle;Signal;HPM_P1;HPM_P2
2022/05/31 04:01:08;;;;;;;3.95;3.65;;;7.90;99.90;;;;;;5548463;23;20240;-70
2022/05/31 04:03:35;;;;;;;3.70;3.60;;;7.90;99.90;;;;;;4935300;29;20669;-71
2022/05/31 04:06:02;;;;;;;4.10;3.90;;;8.00;99.90;;;;;;4946934;28;20197;-71
2022/05/31 04:08:29;;;;;;;4.50;4.10;;;8.00;99.90;;;;;;4942676;28;20219;-70
2022/05/31 04:10:56;;;;;;;4.30;4.00;;;8.10;99.90;;;;;;4941427;28;20226;-70
2022/05/31 04:13:23;;;;;;;3.60;3.40;;;8.10;99.90;;;;;;4935970;29;20289;-70
2022/05/31 04:15:50;;;;;;;3.33;3.22;;;8.10;99.90;;;;;;4954654;23;20308;-71
2022/05/31 04:18:20;;;;;;;3.10;3.10;;;8.20;99.90;;;;;;4956187;28;20213;-73
2022/05/31 04:20:47;;;;;;;4.32;4.15;;;8.30;99.90;;;;;;4951937;28;20205;-73
2022/05/31 04:26:04;;;;;;;3.92;3.83;;;9.10;99.90;;;;;;4970898;28;20228;-73
2022/05/31 04:28:31;;;;;;;2.78;2.67;;;10.10;99.90;;;;;;4971994;28;20194;-74
2022/05/31 04:30:58;;;;;;;2.70;2.50;;;10.90;99.90;;;;;;4983433;28;20202;-75
2022/05/31 04:33:27;;;;;;;2.90;2.70;;;11.80;99.90;;;;;;4974947;28;20495;-74
2022/05/31 04:36:06;;;;;;;2.80;2.70;;;12.50;99.90;;;;;;4981604;28;20581;-71
2022/05/31 04:38:34;;;;;;;2.80;2.50;;;13.10;99.90;;;;;;4971622;28;20960;-71
2022/05/31 04:41:01;;;;;;;2.10;2.10;;;13.60;99.90;;;;;;4946789;28;20958;-71
2022/05/31 04:43:28;;;;;;;2.50;2.40;;;14.20;99.90;;;;;;4938499;28;20453;-71
2022/05/31 04:45:55;;;;;;;2.90;2.80;;;14.50;99.90;;;;;;4934953;28;20490;-69
2022/05/31 04:48:22;;;;;;;2.00;2.00;;;14.80;99.90;;;;;;4957939;28;20500;-70
2022/05/31 04:50:50;;;;;;;2.37;2.33;;;15.30;99.90;;;;;;4951554;28;20572;-71
2022/05/31 04:53:16;;;;;;;2.20;2.20;;;15.70;99.90;;;;;;4950324;28;20461;-71
2022/05/31 04:55:45;;;;;;;2.73;2.60;;;15.90;99.90;;;;;;4947438;28;20494;-72
2022/05/31 04:58:12;;;;;;;2.63;2.63;;;16.20;99.90;;;;;;4960603;28;20507;-70
2022/05/31 05:00:38;;;;;;;2.50;2.50;;;16.50;99.90;;;;;;4947403;28;20851;-71
2022/05/31 05:03:05;;;;;;;2.53;2.43;;;16.60;99.90;;;;;;4964695;28;20479;-69
2022/05/31 05:05:33;;;;;;;4.33;2.53;;;16.90;99.90;;;;;;4945930;28;20497;-71
2022/05/31 05:08:01;;;;;;;2.30;2.20;;;17.20;99.90;;;;;;4949641;28;20884;-72
2022/05/31 05:10:28;;;;;;;2.80;2.80;;;17.50;99.90;;;;;;4947325;28;20473;-72
2022/05/31 05:12:55;;;;;;;2.90;2.80;;;17.70;99.90;;;;;;4953003;28;20461;-71
2022/05/31 05:15:21;;;;;;;2.47;2.47;;;17.70;99.90;;;;;;4947264;28;21018;-70
2022/05/31 05:17:48;;;;;;;2.70;2.60;;;17.90;99.90;;;;;;4948833;28;20539;-69
2022/05/31 05:20:15;;;;;;;3.20;2.97;;;17.80;99.90;;;;;;4947816;29;20481;-70
2022/05/31 05:22:42;;;;;;;3.00;2.90;;;17.80;99.90;;;;;;4950359;28;20488;-70
2022/05/31 05:25:10;;;;;;;2.77;2.67;;;17.80;99.90;;;;;;4954899;28;20465;-68
2022/05/31 05:27:37;;;;;;;3.03;2.93;;;18.10;99.90;;;;;;4950091;28;20469;-69
2022/05/31 05:32:49;;;;;;;3.30;3.20;;;17.80;99.90;;;;;;4956688;28;20457;-70
2022/05/31 05:35:16;;;;;;;3.20;3.10;;;18.00;99.90;;;;;;4957619;28;20859;-68
2022/05/31 05:37:43;;;;;;;3.00;3.00;;;18.10;99.90;;;;;;4944822;28;20481;-70
2022/05/31 05:40:12;;;;;;;3.30;3.20;;;18.20;99.90;;;;;;4940688;29;20841;-69
2022/05/31 05:42:42;;;;;;;2.73;2.73;;;18.30;99.90;;;;;;4960894;28;20473;-69
2022/05/31 05:45:10;;;;;;;3.00;2.80;;;18.40;99.90;;;;;;4955566;28;20515;-69
2022/05/31 05:47:37;;;;;;;3.23;3.03;;;18.90;99.90;;;;;;4947818;28;20478;-69
2022/05/31 05:50:05;;;;;;;3.03;3.03;;;19.30;99.90;;;;;;4965038;28;20475;-69
2022/05/31 05:52:33;;;;;;;3.73;3.63;;;19.40;99.90;;;;;;4961175;28;20470;-69
2022/05/31 05:55:01;;;;;;;2.73;2.73;;;19.40;99.90;;;;;;4960646;28;20968;-70
2022/05/31 05:57:29;;;;;;;3.77;3.67;;;19.60;99.90;;;;;;4959498;28;20499;-71
2022/05/31 05:59:56;;;;;;;3.63;3.43;;;19.70;99.90;;;;;;4954793;28;20476;-72
2022/05/31 06:02:28;;;;;;;3.60;3.50;;;19.70;99.90;;;;;;4947744;28;20972;-68
2022/05/31 06:05:00;;;;;;;3.73;3.63;;;20.10;99.90;;;;;;4944756;28;20559;-70
2022/05/31 06:07:33;;;;;;;3.10;3.10;;;20.30;99.90;;;;;;4949152;28;20465;-69
2022/05/31 06:10:07;;;;;;;2.50;2.40;;;20.60;99.90;;;;;;4949851;28;20497;-70
2022/05/31 06:12:39;;;;;;;3.00;2.80;;;20.50;99.90;;;;;;4941269;28;20485;-71
2022/05/31 06:15:09;;;;;;;3.00;2.90;;;20.70;99.90;;;;;;4950920;28;20471;-69
2022/05/31 06:17:40;;;;;;;2.60;2.50;;;20.90;99.90;;;;;;4948676;28;20788;-69
2022/05/31 06:20:09;;;;;;;2.03;2.03;;;21.40;99.90;;;;;;4935307;28;20470;-69
2022/05/31 06:22:38;;;;;;;2.97;2.77;;;21.80;99.40;;;;;;4943946;28;20483;-69
2022/05/31 06:25:06;;;;;;;2.93;2.70;;;21.60;98.50;;;;;;4942032;28;20493;-69
2022/05/31 06:27:33;;;;;;;2.67;2.50;;;21.60;98.50;;;;;;4951015;28;20845;-70
2022/05/31 06:30:01;;;;;;;2.50;2.40;;;21.70;97.90;;;;;;4949791;28;20476;-69
2022/05/31 06:32:28;;;;;;;2.13;2.13;;;21.90;97.90;;;;;;4951279;28;20777;-69
2022/05/31 06:34:55;;;;;;;2.03;2.03;;;21.80;97.60;;;;;;4940466;28;20469;-69
2022/05/31 06:37:21;;;;;;;2.27;2.20;;;21.70;97.50;;;;;;4956309;28;20492;-69
2022/05/31 06:39:48;;;;;;;2.10;2.00;;;21.60;97.30;;;;;;4936529;29;20989;-71
2022/05/31 06:42:15;;;;;;;2.47;2.47;;;21.50;98.20;;;;;;4958448;28;20469;-70
2022/05/31 06:44:43;;;;;;;2.23;2.23;;;21.70;96.90;;;;;;4942952;28;20498;-70
2022/05/31 06:47:12;;;;;;;2.07;2.07;;;22.10;97.10;;;;;;4947645;28;20499;-70
2022/05/31 06:49:40;;;;;;;2.10;2.00;;;21.10;96.20;;;;;;4941317;28;20549;-69
2022/05/31 06:57:41;;;;;;;1.47;1.47;;;21.40;97.30;;;;;;4959078;28;20461;-71
2022/05/31 07:00:11;;;;;;;2.13;2.13;;;21.60;96.30;;;;;;4955462;28;20463;-69
2022/05/31 07:02:39;;;;;;;3.27;2.10;;;21.80;96.40;;;;;;4946732;28;20467;-68
2022/05/31 07:05:07;;;;;;;2.47;2.27;;;21.80;96.60;;;;;;4952755;28;20478;-68
2022/05/31 07:07:34;;;;;;;2.30;2.20;;;21.30;96.80;;;;;;4947604;28;20506;-68
2022/05/31 07:10:01;;;;;;;2.47;2.30;;;20.70;96.50;;;;;;4944938;28;20554;-68
2022/05/31 07:12:28;;;;;;;1.90;1.90;;;20.50;98.10;;;;;;4960402;28;20531;-69
2022/05/31 07:14:55;;;;;;;2.27;2.27;;;20.20;98.60;;;;;;4956440;28;20500;-68
2022/05/31 07:17:21;;;;;;;2.57;2.57;;;19.70;98.90;;;;;;4948571;28;20507;-70
2022/05/31 07:19:49;;;;;;;1.97;1.97;;;19.20;99.90;;;;;;4951673;28;20475;-67
2022/05/31 07:22:16;;;;;;;2.17;2.00;;;18.90;99.90;;;;;;4951979;28;20469;-69
2022/05/31 07:24:43;;;;;;;2.43;2.30;;;18.70;99.90;;;;;;4947837;28;20549;-70
2022/05/31 07:27:10;;;;;;;3.93;2.30;;;18.90;99.90;;;;;;4962332;28;20487;-69
2022/05/31 07:29:37;;;;;;;2.37;1.90;;;18.90;99.90;;;;;;4973303;28;20467;-69
2022/05/31 07:32:04;;;;;;;1.77;1.77;;;18.80;99.90;;;;;;4957075;28;20468;-68
2022/05/31 07:34:31;;;;;;;1.80;1.70;;;19.00;99.90;;;;;;4955547;28;20461;-69
2022/05/31 07:36:59;;;;;;;1.73;1.63;;;18.80;99.90;;;;;;4955627;28;20488;-69
2022/05/31 07:39:26;;;;;;;1.80;1.80;;;18.30;99.90;;;;;;4945718;28;20468;-69
2022/05/31 07:41:54;;;;;;;2.57;1.90;;;18.10;99.90;;;;;;4951968;28;20470;-71
2022/05/31 07:44:21;;;;;;;4.03;2.47;;;18.20;99.90;;;;;;4961021;28;21023;-70
2022/05/31 07:46:48;;;;;;;2.00;2.00;;;18.40;99.90;;;;;;4969884;28;20511;-69
2022/05/31 07:49:15;;;;;;;1.77;1.60;;;18.40;99.90;;;;;;4952394;28;20464;-70
2022/05/31 07:51:41;;;;;;;1.77;1.67;;;18.60;99.90;;;;;;4971158;28;20467;-68
2022/05/31 07:54:10;;;;;;;1.80;1.70;;;19.00;99.90;;;;;;4956711;28;20489;-70
2022/05/31 07:56:36;;;;;;;2.30;2.10;;;19.10;99.90;;;;;;4935969;29;20490;-73
2022/05/31 07:59:03;;;;;;;1.90;1.90;;;19.00;99.90;;;;;;4946638;28;20922;-69
2022/05/31 08:01:30;;;;;;;3.10;1.93;;;18.80;99.90;;;;;;4956845;28;20472;-68
2022/05/31 08:03:57;;;;;;;1.27;1.27;;;18.70;99.90;;;;;;4946380;28;20464;-71
2022/05/31 08:06:28;;;;;;;1.53;1.50;;;18.70;99.90;;;;;;4953286;28;20481;-69
2022/05/31 08:08:56;;;;;;;1.90;1.90;;;18.60;99.90;;;;;;4953758;28;20472;-70
2022/05/31 08:11:26;;;;;;;1.70;1.70;;;18.40;99.90;;;;;;4945502;28;20481;-69
2022/05/31 08:13:54;;;;;;;1.63;1.50;;;18.20;99.90;;;;;;4950411;28;20579;-68
2022/05/31 08:16:22;;;;;;;2.40;2.20;;;18.10;99.90;;;;;;4956970;28;20504;-72
2022/05/31 08:18:50;;;;;;;1.50;1.50;;;18.50;99.90;;;;;;4946099;28;20836;-69
2022/05/31 08:21:18;;;;;;;2.10;1.70;;;18.80;99.90;;;;;;4960197;28;20470;-68
2022/05/31 08:23:46;;;;;;;2.00;1.90;;;19.20;99.90;;;;;;4966630;28;20472;-70
2022/05/31 08:26:12;;;;;;;1.70;1.60;;;20.30;99.90;;;;;;4942954;28;20589;-68
2022/05/31 08:28:40;;;;;;;1.30;1.30;;;20.90;98.90;;;;;;4940052;28;20528;-69
2022/05/31 08:31:10;;;;;;;1.80;1.70;;;21.00;98.40;;;;;;4934615;29;20480;-69
2022/05/31 08:33:38;;;;;;;2.43;2.23;;;20.50;97.60;;;;;;4947126;28;20482;-70
2022/05/31 08:36:06;;;;;;;1.80;1.80;;;20.00;98.00;;;;;;4965266;28;21040;-68
2022/05/31 08:38:33;;;;;;;2.20;2.17;;;19.50;98.50;;;;;;4951657;28;20497;-67
2022/05/31 08:41:08;;;;;;;1.90;1.90;;;19.10;99.30;;;;;;4961859;28;20465;-71
2022/05/31 08:43:51;;;;;;;2.50;2.40;;;18.80;99.50;;;;;;4947957;28;20476;-67
2022/05/31 08:46:28;;;;;;;2.63;2.10;;;18.50;99.90;;;;;;4945809;28;20820;-68
2022/05/31 08:48:58;;;;;;;2.27;2.27;;;18.10;99.90;;;;;;4947942;28;20991;-69
2022/05/31 08:51:54;;;;;;;2.10;2.10;;;18.00;99.90;;;;;;4941714;28;20501;-68
2022/05/31 08:57:24;;;;;;;2.30;2.30;;;18.00;99.90;;;;;;4965456;28;20463;-67
2022/05/31 08:59:57;;;;;;;1.60;1.60;;;18.10;99.90;;;;;;4943882;29;20958;-68
2022/05/31 09:02:30;;;;;;;1.57;1.57;;;18.00;99.90;;;;;;4955736;28;20588;-67
2022/05/31 09:05:04;;;;;;;2.00;1.90;;;18.00;99.90;;;;;;4961242;28;20808;-68
2022/05/31 09:07:37;;;;;;;2.10;2.00;;;17.90;99.90;;;;;;4945325;28;20934;-68
2022/05/31 09:10:07;;;;;;;1.53;1.53;;;17.80;99.90;;;;;;4958976;28;20470;-69
2022/05/31 09:12:42;;;;;;;1.97;1.87;;;17.80;99.90;;;;;;4947250;28;20874;-68
2022/05/31 09:15:16;;;;;;;1.90;1.90;;;17.80;99.90;;;;;;4951107;28;20831;-69
2022/05/31 09:17:53;;;;;;;1.80;1.80;;;17.90;99.90;;;;;;4952205;28;20471;-68
2022/05/31 09:20:28;;;;;;;2.00;1.90;;;18.00;99.90;;;;;;4954934;28;20491;-70
2022/05/31 09:22:55;;;;;;;2.20;1.50;;;18.00;99.90;;;;;;4964191;28;20574;-69
2022/05/31 09:25:22;;;;;;;2.07;1.97;;;17.90;99.90;;;;;;4952436;28;20498;-67
2022/05/31 09:27:50;;;;;;;2.23;2.13;;;18.10;99.90;;;;;;4961445;28;20487;-68
2022/05/31 09:30:25;;;;;;;1.53;1.53;;;18.20;99.90;;;;;;4950022;28;20481;-69
2022/05/31 09:33:17;;;;;;;1.57;1.47;;;18.20;99.90;;;;;;4957314;28;20468;-68
2022/05/31 09:35:56;;;;;;;2.37;1.40;;;18.10;99.90;;;;;;4946194;28;20511;-68
2022/05/31 09:38:48;;;;;;;1.70;1.70;;;18.20;99.90;;;;;;4950649;28;20469;-69
2022/05/31 09:41:23;;;;;;;1.80;1.77;;;17.90;99.90;;;;;;4953293;28;20514;-70
2022/05/31 09:43:58;;;;;;;1.60;1.60;;;17.50;99.90;;;;;;4944491;28;20465;-68
2022/05/31 09:46:34;;;;;;;1.90;1.90;;;17.20;99.90;;;;;;4942380;28;20811;-67
2022/05/31 09:49:09;;;;;;;1.43;1.40;;;17.10;99.90;;;;;;4939793;28;20479;-71
2022/05/31 09:51:39;;;;;;;2.17;2.07;;;17.10;99.90;;;;;;4947577;28;20845;-68
2022/05/31 09:57:13;;;;;;;1.70;1.70;;;16.90;99.90;;;;;;4959834;28;20487;-69
2022/05/31 09:59:46;;;;;;;1.80;1.80;;;17.00;99.90;;;;;;4944385;28;20523;-68
2022/05/31 10:02:20;;;;;;;1.67;1.57;;;17.20;99.90;;;;;;4946383;28;20536;-69
2022/05/31 10:04:49;;;;;;;1.77;1.77;;;17.20;99.90;;;;;;4945811;29;20493;-67
2022/05/31 10:07:32;;;;;;;1.60;1.53;;;17.30;99.90;;;;;;4944235;28;21009;-68
2022/05/31 10:10:06;;;;;;;3.07;1.70;;;17.70;99.90;;;;;;4943349;28;20472;-67
2022/05/31 10:12:34;;;;;;;1.60;1.50;;;18.00;99.90;;;;;;4954218;28;20472;-68
2022/05/31 10:15:03;;;;;;;1.70;1.70;;;18.00;99.90;;;;;;4948913;28;20465;-67
2022/05/31 10:17:40;;;;;;;1.47;1.47;;;17.90;99.90;;;;;;4955061;28;20551;-69
2022/05/31 10:20:21;;;;;;;2.20;2.10;;;17.30;99.90;;;;;;4950730;28;20457;-67
2022/05/31 10:22:54;;;;;;;1.87;1.77;;;17.30;99.90;;;;;;4936671;29;20465;-67
2022/05/31 10:25:23;;;;;;;2.30;1.97;;;17.40;99.90;;;;;;4958370;28;20520;-68
2022/05/31 10:27:58;;;;;;;1.83;1.73;;;17.50;99.90;;;;;;4956162;28;20495;-68
2022/05/31 10:30:25;;;;;;;1.60;1.60;;;17.60;99.90;;;;;;4954889;28;20868;-68
2022/05/31 10:32:55;;;;;;;1.90;1.90;;;17.80;99.90;;;;;;4945512;28;20565;-68
2022/05/31 10:35:25;;;;;;;1.77;1.73;;;17.80;99.90;;;;;;4946422;28;20908;-67
2022/05/31 10:37:57;;;;;;;1.53;1.53;;;17.90;99.90;;;;;;4948385;28;20500;-68
2022/05/31 10:40:32;;;;;;;2.50;1.90;;;17.90;99.90;;;;;;4941093;28;20567;-68
2022/05/31 10:43:06;;;;;;;1.70;1.67;;;17.80;99.90;;;;;;4952424;28;20463;-68
2022/05/31 10:45:33;;;;;;;1.93;1.80;;;17.70;99.90;;;;;;4952280;28;21004;-68
2022/05/31 10:48:01;;;;;;;1.50;1.50;;;17.80;99.90;;;;;;4959383;28;20460;-68
2022/05/31 10:50:34;;;;;;;1.50;1.50;;;17.90;99.90;;;;;;4942281;29;20467;-68
2022/05/31 10:53:18;;;;;;;2.83;1.80;;;18.00;99.90;;;;;;4936437;28;20470;-68
2022/05/31 10:55:51;;;;;;;1.40;1.40;;;18.10;99.90;;;;;;4953792;28;20599;-68
2022/05/31 10:58:38;;;;;;;1.87;1.73;;;18.30;99.90;;;;;;4959174;28;20464;-69
2022/05/31 11:01:18;;;;;;;1.60;1.60;;;18.30;99.90;;;;;;4946995;29;20789;-69
2022/05/31 11:03:55;;;;;;;1.40;1.40;;;18.10;99.90;;;;;;4951063;28;20543;-69
2022/05/31 11:06:32;;;;;;;1.80;1.73;;;18.00;99.90;;;;;;4958755;28;21001;-69
2022/05/31 11:12:05;;;;;;;1.57;1.50;;;18.10;99.90;;;;;;4943418;29;20557;-69
2022/05/31 11:14:46;;;;;;;1.60;1.60;;;18.00;99.90;;;;;;4944298;29;20568;-69
2022/05/31 11:17:34;;;;;;;1.73;1.70;;;17.80;99.90;;;;;;4959937;28;20487;-69
2022/05/31 11:20:08;;;;;;;1.80;1.80;;;17.90;99.90;;;;;;4946795;28;20905;-69
2022/05/31 11:22:59;;;;;;;1.57;1.47;;;18.00;99.90;;;;;;4966245;28;20488;-69
2022/05/31 11:25:47;;;;;;;1.40;1.40;;;18.10;99.90;;;;;;4959267;28;20495;-69
2022/05/31 11:28:32;;;;;;;1.47;1.40;;;18.10;99.90;;;;;;4961360;28;20472;-69
2022/05/31 11:31:19;;;;;;;1.47;1.47;;;18.20;99.90;;;;;;4942528;28;20488;-69
2022/05/31 11:34:13;;;;;;;1.67;1.63;;;18.10;99.80;;;;;;4951125;28;20484;-69
2022/05/31 11:36:53;;;;;;;1.90;1.40;;;18.00;98.90;;;;;;4964074;28;20511;-69
2022/05/31 11:39:36;;;;;;;2.00;1.40;;;18.00;99.30;;;;;;4961920;28;20987;-69
2022/05/31 11:42:17;;;;;;;1.20;1.20;;;18.00;98.80;;;;;;4948809;28;20472;-69
2022/05/31 11:45:04;;;;;;;1.23;1.23;;;18.00;99.00;;;;;;4964522;28;20460;-69
2022/05/31 11:47:57;;;;;;;1.40;1.40;;;18.10;99.40;;;;;;4955121;28;20470;-69
2022/05/31 11:50:34;;;;;;;1.37;1.37;;;18.30;99.30;;;;;;4950786;28;20522;-69
2022/05/31 11:53:30;;;;;;;1.67;1.57;;;18.50;98.40;;;;;;4967990;28;20522;-69
2022/05/31 11:56:03;;;;;;;1.20;1.20;;;18.70;98.40;;;;;;4962407;28;20495;-69
2022/05/31 11:58:43;;;;;;;1.20;1.20;;;18.80;97.90;;;;;;4949994;28;20479;-69
2022/05/31 12:01:14;;;;;;;1.13;1.13;;;18.80;97.80;;;;;;4952649;28;20479;-69
2022/05/31 12:03:50;;;;;;;1.47;1.30;;;19.00;99.00;;;;;;4960513;28;20459;-69
2022/05/31 12:06:25;;;;;;;1.80;1.70;;;19.10;97.80;;;;;;4955094;28;20500;-69
2022/05/31 12:08:59;;;;;;;1.30;1.30;;;19.10;97.30;;;;;;4947107;28;20795;-68
2022/05/31 12:11:32;;;;;;;1.50;1.40;;;19.10;97.00;;;;;;4946090;28;20460;-69
2022/05/31 12:14:00;;;;;;;1.13;1.13;;;19.20;95.90;;;;;;4953239;28;20471;-69
2022/05/31 12:16:28;;;;;;;1.10;1.10;;;19.00;95.80;;;;;;4958304;28;20500;-68
2022/05/31 12:19:06;;;;;;;1.10;1.10;;;19.10;98.00;;;;;;4965881;28;20464;-68
2022/05/31 12:21:39;;;;;;;2.63;1.20;;;19.10;97.40;;;;;;4963728;28;20463;-68
2022/05/31 12:24:12;;;;;;;1.37;1.30;;;19.10;96.40;;;;;;4955750;28;20478;-69
2022/05/31 12:26:47;;;;;;;1.53;1.53;;;19.20;95.70;;;;;;4971696;28;20491;-69
2022/05/31 12:29:19;;;;;;;1.80;1.40;;;19.20;96.40;;;;;;4968885;28;20475;-69
2022/05/31 12:31:47;;;;;;;1.07;1.07;;;19.40;96.00;;;;;;4951013;28;20840;-69
2022/05/31 12:34:39;;;;;;;1.60;1.40;;;19.60;96.30;;;;;;4953182;28;20496;-68
2022/05/31 12:37:09;;;;;;;31.80;21.30;;;19.80;95.50;;;;;;4961943;28;20483;-69
2022/05/31 12:39:38;;;;;;;1.20;1.20;;;19.80;95.10;;;;;;4963356;28;20472;-68
2022/05/31 12:42:38;;;;;;;1.87;1.77;;;20.00;94.70;;;;;;4947788;28;20776;-68
2022/05/31 12:45:38;;;;;;;1.30;1.30;;;19.70;94.00;;;;;;4949121;28;20530;-68
2022/05/31 12:48:20;;;;;;;1.43;1.33;;;19.50;94.00;;;;;;4927668;29;20481;-68
2022/05/31 12:51:21;;;;;;;2.00;2.00;;;19.50;94.40;;;;;;4951985;28;20452;-70
2022/05/31 12:54:11;;;;;;;1.37;1.30;;;19.50;95.10;;;;;;4937406;29;20469;-68
2022/05/31 12:57:19;;;;;;;3.17;3.00;;;19.50;94.20;;;;;;4964360;28;20780;-68
2022/05/31 12:59:53;;;;;;;1.23;1.23;;;19.50;94.50;;;;;;4956691;28;20499;-69
2022/05/31 13:02:32;;;;;;;1.40;1.40;;;19.30;95.00;;;;;;4956232;28;20470;-69
2022/05/31 13:05:06;;;;;;;1.30;1.30;;;19.20;94.50;;;;;;4958139;28;20479;-69
2022/05/31 13:07:45;;;;;;;1.30;1.20;;;19.20;94.50;;;;;;4960573;28;20479;-69
2022/05/31 13:10:37;;;;;;;1.20;1.20;;;19.10;95.20;;;;;;4955082;28;20470;-70
2022/05/31 13:21:29;;;;;;;1.50;1.50;;;18.50;96.00;;;;;;4942707;28;20966;-70
2022/05/31 13:23:58;;;;;;;1.43;1.43;;;18.50;97.20;;;;;;4938438;29;20465;-69
2022/05/31 13:26:29;;;;;;;1.30;1.30;;;18.70;97.60;;;;;;4946877;28;20497;-69
2022/05/31 13:29:04;;;;;;;1.60;1.50;;;18.60;96.70;;;;;;4955986;28;20467;-69
2022/05/31 13:31:33;;;;;;;1.63;1.63;;;18.60;96.90;;;;;;4956772;28;20470;-69
2022/05/31 13:34:01;;;;;;;1.23;1.20;;;18.60;96.60;;;;;;4949970;28;20843;-69
2022/05/31 13:36:30;;;;;;;1.10;1.10;;;18.50;97.30;;;;;;4934179;29;20575;-69
2022/05/31 13:38:59;;;;;;;1.00;1.00;;;18.60;96.90;;;;;;4934120;29;20473;-69
2022/05/31 13:41:27;;;;;;;1.20;1.20;;;18.80;97.20;;;;;;4942367;28;20657;-70
2022/05/31 13:43:57;;;;;;;1.20;1.20;;;18.80;97.10;;;;;;4953527;28;20529;-70
2022/05/31 13:46:29;;;;;;;1.10;1.10;;;18.90;96.50;;;;;;4948444;28;20508;-68
2022/05/31 13:49:02;;;;;;;1.57;1.57;;;19.00;98.20;;;;;;4934334;29;20842;-68
2022/05/31 13:51:31;;;;;;;1.47;1.37;;;19.00;98.00;;;;;;4933639;29;20458;-69
2022/05/31 13:54:08;;;;;;;1.60;1.50;;;19.00;97.30;;;;;;4934234;29;20501;-68
2022/05/31 13:56:36;;;;;;;1.00;1.00;;;18.80;98.20;;;;;;4934321;29;20485;-68
2022/05/31 13:59:03;;;;;;;1.30;1.30;;;18.80;98.60;;;;;;4933925;29;20473;-68
2022/05/31 14:01:36;;;;;;;1.50;1.40;;;18.90;97.80;;;;;;4944430;29;20464;-68
2022/05/31 14:04:09;;;;;;;1.10;1.10;;;18.80;97.40;;;;;;4952974;28;20500;-68
2022/05/31 14:06:37;;;;;;;1.47;1.37;;;18.80;97.00;;;;;;4952848;28;20607;-68
2022/05/31 14:09:07;;;;;;;1.10;1.10;;;18.60;97.60;;;;;;4952661;28;20461;-70
2022/05/31 14:11:37;;;;;;;1.33;1.23;;;18.60;97.30;;;;;;4933632;29;20476;-70
2022/05/31 14:14:09;;;;;;;1.30;1.30;;;18.80;98.10;;;;;;4934441;29;20493;-69
2022/05/31 14:16:40;;;;;;;1.00;1.00;;;18.80;96.70;;;;;;4934106;29;21029;-68
2022/05/31 14:19:16;;;;;;;1.27;1.27;;;19.00;95.00;;;;;;4954000;29;20464;-68
2022/05/31 14:21:44;;;;;;;1.37;1.37;;;19.00;94.60;;;;;;4949987;29;20586;-68
2022/05/31 14:24:12;;;;;;;1.73;1.63;;;19.10;93.60;;;;;;4958844;29;20970;-69
2022/05/31 14:26:40;;;;;;;1.40;1.40;;;19.30;93.20;;;;;;4948454;29;20507;-68
2022/05/31 14:29:29;;;;;;;1.20;1.20;;;19.30;94.90;;;;;;4936080;29;20469;-68
2022/05/31 14:32:23;;;;;;;2.40;1.40;;;19.30;95.30;;;;;;4942320;28;20475;-70
2022/05/31 14:34:52;;;;;;;1.60;1.50;;;19.50;93.80;;;;;;4946016;28;20487;-70
2022/05/31 14:37:38;;;;;;;1.20;1.20;;;19.60;94.40;;;;;;4952414;28;20484;-70
2022/05/31 14:40:09;;;;;;;1.30;1.30;;;19.80;92.50;;;;;;4933590;29;20484;-69
2022/05/31 14:42:38;;;;;;;1.40;1.40;;;19.60;93.30;;;;;;4934006;29;20911;-69
2022/05/31 14:45:08;;;;;;;1.53;1.53;;;19.50;93.90;;;;;;4933952;29;20780;-69
2022/05/31 14:47:38;;;;;;;1.50;1.40;;;19.50;94.50;;;;;;4933997;29;20521;-69
2022/05/31 14:50:26;;;;;;;1.50;1.50;;;19.60;94.00;;;;;;4937767;29;20471;-69
2022/05/31 14:52:55;;;;;;;1.27;1.20;;;19.40;92.90;;;;;;4939543;28;20549;-69
2022/05/31 14:55:31;;;;;;;1.13;1.13;;;19.20;93.70;;;;;;4949023;29;20480;-69
2022/05/31 15:00:53;;;;;;;2.73;1.27;;;18.90;92.20;;;;;;4944444;29;20480;-69
2022/05/31 15:03:37;;;;;;;1.70;1.60;;;19.10;92.10;;;;;;4951740;28;20969;-69
2022/05/31 15:06:06;;;;;;;1.13;1.03;;;19.20;92.70;;;;;;4946487;29;20489;-69
2022/05/31 15:08:36;;;;;;;1.90;1.70;;;19.40;92.90;;;;;;4946067;28;20466;-68
2022/05/31 15:19:37;;;;;;;1.50;1.40;;;18.90;96.30;;;;;;4957616;28;20512;-68
2022/05/31 15:22:05;;;;;;;1.57;1.57;;;18.90;95.70;;;;;;4949119;28;20479;-68
2022/05/31 15:24:34;;;;;;;1.70;1.60;;;18.80;96.30;;;;;;4951855;28;20465;-69
2022/05/31 15:27:02;;;;;;;1.53;1.53;;;18.80;96.70;;;;;;4946984;28;20495;-68
2022/05/31 15:29:29;;;;;;;1.50;1.50;;;18.90;97.00;;;;;;4952645;28;20467;-69
2022/05/31 15:31:56;;;;;;;1.83;1.73;;;18.80;96.20;;;;;;4944915;28;20470;-68
2022/05/31 15:34:23;;;;;;;1.30;1.30;;;18.90;96.50;;;;;;4949044;28;20471;-68
2022/05/31 15:36:51;;;;;;;2.07;1.97;;;18.80;96.40;;;;;;4970189;28;20574;-69
2022/05/31 15:39:18;;;;;;;1.60;1.50;;;18.70;96.20;;;;;;4951173;28;20465;-69
2022/05/31 15:41:45;;;;;;;1.63;1.63;;;18.60;96.50;;;;;;4950170;28;20933;-68
2022/05/31 15:44:12;;;;;;;2.73;2.60;;;18.60;96.80;;;;;;4959074;28;20468;-68
2022/05/31 15:46:39;;;;;;;1.30;1.30;;;18.60;96.80;;;;;;4971339;28;20499;-69
2022/05/31 15:49:07;;;;;;;1.53;1.53;;;18.60;96.90;;;;;;4947539;28;20633;-68
2022/05/31 15:51:37;;;;;;;1.20;1.20;;;18.50;96.30;;;;;;4949895;28;20984;-68
2022/05/31 15:54:15;;;;;;;1.40;1.40;;;18.50;95.60;;;;;;4949019;28;20472;-69
2022/05/31 15:56:44;;;;;;;1.33;1.10;;;18.60;96.40;;;;;;4973938;28;20540;-68
2022/05/31 15:59:16;;;;;;;1.83;1.73;;;18.70;96.50;;;;;;4956931;28;20461;-68
2022/05/31 16:01:43;;;;;;;1.30;1.30;;;18.70;95.80;;;;;;4949643;28;20804;-69
2022/05/31 16:04:09;;;;;;;1.33;1.33;;;18.70;96.50;;;;;;4950814;28;20496;-68
2022/05/31 16:06:36;;;;;;;1.20;1.20;;;18.80;96.30;;;;;;4954916;28;20480;-69
2022/05/31 16:09:04;;;;;;;1.53;1.53;;;18.90;96.80;;;;;;4956346;28;20475;-69
2022/05/31 16:11:32;;;;;;;1.20;1.20;;;18.90;95.70;;;;;;4955145;28;20522;-69
2022/05/31 16:13:59;;;;;;;1.40;1.40;;;19.00;96.00;;;;;;4950346;28;20477;-69
2022/05/31 16:16:26;;;;;;;1.50;1.50;;;19.00;95.80;;;;;;4939334;28;20501;-69
2022/05/31 16:18:53;;;;;;;1.53;1.53;;;19.00;96.10;;;;;;4948258;28;20473;-70
2022/05/31 16:21:20;;;;;;;1.20;1.20;;;18.90;96.50;;;;;;4942028;28;20613;-70
2022/05/31 16:23:48;;;;;;;1.77;1.50;;;18.90;97.20;;;;;;4952039;28;20468;-70
2022/05/31 16:26:15;;;;;;;1.50;1.40;;;18.80;96.80;;;;;;4953054;28;20580;-69
2022/05/31 16:28:43;;;;;;;2.67;1.60;;;18.70;96.70;;;;;;4963042;23;20504;-69
2022/05/31 16:31:10;;;;;;;1.70;1.60;;;18.60;97.30;;;;;;4935919;29;20476;-69
2022/05/31 16:33:36;;;;;;;1.50;1.50;;;18.70;97.70;;;;;;4935477;29;20469;-69
2022/05/31 16:36:06;;;;;;;1.67;1.57;;;18.70;98.20;;;;;;4932394;29;20470;-69
2022/05/31 16:41:18;;;;;;;1.43;1.43;;;18.50;98.60;;;;;;4940584;29;20559;-69
2022/05/31 16:43:48;;;;;;;1.50;1.50;;;18.50;97.80;;;;;;4934206;29;20473;-70
2022/05/31 16:46:17;;;;;;;2.03;1.37;;;18.50;98.60;;;;;;4935805;29;20465;-70
2022/05/31 16:48:47;;;;;;;1.83;1.73;;;18.50;98.10;;;;;;4928768;29;20867;-69
2022/05/31 16:51:22;;;;;;;1.97;1.70;;;18.50;98.40;;;;;;4933521;29;20880;-69
2022/05/31 16:53:49;;;;;;;1.80;1.40;;;18.50;98.60;;;;;;4933386;29;20465;-71
2022/05/31 16:56:16;;;;;;;2.00;1.80;;;18.40;98.80;;;;;;4933745;29;20882;-70
2022/05/31 16:58:42;;;;;;;1.40;1.40;;;18.40;97.90;;;;;;4935288;29;20484;-71
2022/05/31 17:01:11;;;;;;;1.70;1.70;;;18.50;97.90;;;;;;4939197;29;20468;-70
2022/05/31 17:03:38;;;;;;;3.40;1.90;;;18.50;98.50;;;;;;4935324;29;20493;-70
2022/05/31 17:06:05;;;;;;;1.57;1.47;;;18.40;98.90;;;;;;4933007;29;20568;-70
2022/05/31 17:16:47;;;;;;;3.03;1.57;;;18.30;99.90;;;;;;4933855;29;20452;-70
2022/05/31 17:19:14;;;;;;;1.27;1.27;;;18.20;99.90;;;;;;4932204;29;20485;-71
2022/05/31 17:21:40;;;;;;;1.80;1.70;;;18.10;99.70;;;;;;4932119;29;20469;-71
2022/05/31 17:24:11;;;;;;;1.53;1.50;;;18.10;99.90;;;;;;4937010;29;20492;-70
2022/05/31 17:26:38;;;;;;;1.40;1.40;;;18.10;99.90;;;;;;4942146;29;20994;-71
2022/05/31 17:29:06;;;;;;;1.93;1.93;;;18.00;99.90;;;;;;4931634;29;20512;-70
2022/05/31 17:31:33;;;;;;;1.50;1.50;;;18.00;99.90;;;;;;4931746;29;20469;-70
2022/05/31 17:34:01;;;;;;;1.10;1.10;;;18.00;99.90;;;;;;4931147;29;20497;-69
2022/05/31 17:36:28;;;;;;;1.20;1.20;;;18.00;99.90;;;;;;4937932;29;20503;-70
2022/05/31 17:38:57;;;;;;;1.77;1.77;;;17.90;99.90;;;;;;4931270;29;20489;-70
2022/05/31 17:41:28;;;;;;;1.40;1.40;;;17.90;99.90;;;;;;4927325;29;20963;-69
2022/05/31 17:43:57;;;;;;;1.23;1.23;;;17.80;99.90;;;;;;4933068;29;20458;-69
2022/05/31 17:46:24;;;;;;;1.63;1.63;;;17.70;99.90;;;;;;4938187;29;20464;-69
2022/05/31 17:48:51;;;;;;;1.50;1.50;;;17.70;99.90;;;;;;4935160;28;21009;-70
2022/05/31 17:51:22;;;;;;;1.60;1.60;;;17.60;99.90;;;;;;4930552;29;20489;-69
2022/05/31 17:53:49;;;;;;;3.83;1.40;;;17.60;99.90;;;;;;4927734;29;20476;-69
2022/05/31 17:56:17;;;;;;;1.50;1.50;;;17.50;99.90;;;;;;4932090;29;20481;-69
2022/05/31 17:58:44;;;;;;;1.80;1.70;;;17.50;99.90;;;;;;4928193;29;21034;-70
2022/05/31 18:01:14;;;;;;;2.17;1.97;;;17.40;99.90;;;;;;4932257;29;20497;-70